createdAt,value
2023-03-02T00:01:50.859Z,6.30
2023-03-02T00:04:22.649Z,5.93
2023-03-02T00:06:52.805Z,6.60
2023-03-02T00:09:22.476Z,6.67
2023-03-02T00:11:51.559Z,7.60
2023-03-02T00:14:19.802Z,7.40
2023-03-02T00:16:48.336Z,9.20
2023-03-02T00:19:16.722Z,6.57
2023-03-02T00:21:45.229Z,5.47
2023-03-02T00:24:15.531Z,5.77
2023-03-02T00:26:45.837Z,6.53
2023-03-02T00:29:14.672Z,8.57
2023-03-02T00:31:43.089Z,6.40
2023-03-02T00:34:11.434Z,5.17
2023-03-02T00:36:40.956Z,7.53
2023-03-02T00:39:09.571Z,6.93
2023-03-02T00:41:37.933Z,7.47
2023-03-02T00:44:07.856Z,5.70
2023-03-02T00:46:36.293Z,7.20
2023-03-02T00:49:04.851Z,6.03
2023-03-02T00:51:33.197Z,5.87
2023-03-02T00:54:02.952Z,7.53
2023-03-02T00:56:31.917Z,7.17
2023-03-02T00:59:18.279Z,6.37
2023-03-02T01:01:58.349Z,5.90
2023-03-02T01:04:31.291Z,8.23
2023-03-02T01:07:01.385Z,5.87
2023-03-02T01:09:30.712Z,5.73
2023-03-02T01:11:59.129Z,6.40
2023-03-02T01:14:29.219Z,6.40
2023-03-02T01:16:57.499Z,5.20
2023-03-02T01:19:25.848Z,5.53
2023-03-02T01:21:54.135Z,5.70
2023-03-02T01:24:22.689Z,5.90
2023-03-02T01:26:51.191Z,5.97
2023-03-02T01:29:19.553Z,8.57
2023-03-02T01:31:49.339Z,8.90
2023-03-02T01:34:17.797Z,6.60
2023-03-02T01:36:46.579Z,5.60
2023-03-02T01:39:16.115Z,5.80
2023-03-02T01:41:45.348Z,6.00
2023-03-02T01:44:42.759Z,6.47
2023-03-02T01:47:17.356Z,8.07
2023-03-02T01:49:57.803Z,6.70
2023-03-02T01:52:28.308Z,6.10
2023-03-02T01:55:00.036Z,7.10
2023-03-02T01:57:31.622Z,7.77
2023-03-02T02:00:07.077Z,6.10
2023-03-02T02:02:42.556Z,5.60
2023-03-02T02:05:14.118Z,6.50
2023-03-02T02:07:42.956Z,7.40
2023-03-02T02:10:12.218Z,6.50
2023-03-02T02:12:40.621Z,10.23
2023-03-02T02:15:09.647Z,8.07
2023-03-02T02:17:37.881Z,6.03
2023-03-02T02:20:19.559Z,8.30
2023-03-02T02:22:57.488Z,6.83
2023-03-02T02:25:41.036Z,6.30
2023-03-02T02:28:15.856Z,6.50
2023-03-02T02:30:46.024Z,6.47
2023-03-02T02:33:17.957Z,7.00
2023-03-02T02:35:47.874Z,7.43
2023-03-02T02:38:20.099Z,7.13
2023-03-02T02:40:53.020Z,8.53
2023-03-02T02:43:29.772Z,6.47
2023-03-02T02:45:59.345Z,7.17
2023-03-02T02:48:31.190Z,9.57
2023-03-02T02:51:02.879Z,6.70
2023-03-02T02:53:39.467Z,6.53
2023-03-02T02:56:09.133Z,6.33
2023-03-02T02:58:42.195Z,9.60
2023-03-02T03:01:14.810Z,6.13
2023-03-02T03:03:49.271Z,6.43
2023-03-02T03:06:20.925Z,7.53
2023-03-02T03:08:56.950Z,8.10
2023-03-02T03:11:37.226Z,6.93
2023-03-02T03:14:10.159Z,6.00
2023-03-02T03:16:40.912Z,6.90
2023-03-02T03:19:16.836Z,9.90
2023-03-02T03:21:45.698Z,8.83
2023-03-02T03:24:14.350Z,8.37
2023-03-02T03:26:43.265Z,8.57
2023-03-02T03:29:13.631Z,7.83
2023-03-02T03:31:42.029Z,7.90
2023-03-02T03:34:10.901Z,7.63
2023-03-02T03:36:39.970Z,5.90
2023-03-02T03:39:11.238Z,7.80
2023-03-02T03:41:39.916Z,10.47
2023-03-02T03:44:09.445Z,7.53
2023-03-02T03:46:40.811Z,6.93
2023-03-02T03:49:09.642Z,8.43
2023-03-02T03:51:38.110Z,6.93
2023-03-02T03:54:09.389Z,7.23
2023-03-02T03:56:42.666Z,5.43
2023-03-02T03:59:13.864Z,7.67
2023-03-02T04:01:50.261Z,5.80
2023-03-02T04:04:21.698Z,6.27
2023-03-02T04:06:50.812Z,6.80
2023-03-02T04:09:19.408Z,7.20
2023-03-02T04:11:50.872Z,7.10
2023-03-02T04:14:20.325Z,7.00
2023-03-02T04:16:50.934Z,6.70
2023-03-02T04:19:19.956Z,7.07
2023-03-02T04:21:53.685Z,6.03
2023-03-02T04:24:24.281Z,7.23
2023-03-02T04:26:55.882Z,5.83
2023-03-02T04:29:24.414Z,5.60
2023-03-02T04:31:55.012Z,6.97
2023-03-02T04:34:26.511Z,6.17
2023-03-02T04:36:55.497Z,5.70
2023-03-02T04:39:24.887Z,5.87
2023-03-02T04:41:55.337Z,6.80
2023-03-02T04:44:23.629Z,6.20
2023-03-02T04:46:52.474Z,6.10
2023-03-02T04:49:22.099Z,7.50
2023-03-02T04:51:51.172Z,6.10
2023-03-02T04:54:22.374Z,8.07
2023-03-02T04:56:51.696Z,6.27
2023-03-02T04:59:27.476Z,5.90
2023-03-02T05:01:57.646Z,7.20
2023-03-02T05:04:28.355Z,5.93
2023-03-02T05:06:57.133Z,6.00
2023-03-02T05:09:27.434Z,8.87
2023-03-02T05:11:56.170Z,34.00
2023-03-02T05:14:25.688Z,19.13
2023-03-02T05:16:54.555Z,121.93
2023-03-02T05:19:23.084Z,33.90
2023-03-02T05:21:53.228Z,15.37
2023-03-02T05:24:21.620Z,10.10
2023-03-02T05:26:49.986Z,6.43
2023-03-02T05:29:18.303Z,5.57
2023-03-02T05:31:47.660Z,5.40
2023-03-02T05:34:18.272Z,7.70
2023-03-02T05:36:47.329Z,5.90
2023-03-02T05:39:17.000Z,9.03
2023-03-02T05:41:45.611Z,5.53
2023-03-02T05:44:13.990Z,5.30
2023-03-02T05:46:42.398Z,5.40
2023-03-02T05:49:10.957Z,7.17
2023-03-02T05:51:39.365Z,6.47
2023-03-02T05:54:07.835Z,8.77
2023-03-02T05:56:37.713Z,5.17
2023-03-02T05:59:06.076Z,5.27
2023-03-02T06:01:35.536Z,5.83
2023-03-02T06:04:04.040Z,6.67
2023-03-02T06:06:34.087Z,5.80
2023-03-02T06:09:02.625Z,6.20
2023-03-02T06:11:31.332Z,5.50
2023-03-02T06:14:01.007Z,7.07
2023-03-02T06:16:33.819Z,7.50
2023-03-02T06:19:02.413Z,5.80
2023-03-02T06:21:30.789Z,5.43
2023-03-02T06:23:59.133Z,8.20
2023-03-02T06:26:28.115Z,6.20
2023-03-02T06:28:56.681Z,5.80
2023-03-02T06:31:26.551Z,68.20
2023-03-02T06:33:54.901Z,46.27
2023-03-02T06:36:23.380Z,18.03
2023-03-02T06:38:51.801Z,13.27
2023-03-02T06:41:20.283Z,8.90
2023-03-02T06:43:48.788Z,9.50
2023-03-02T06:46:17.205Z,7.10
2023-03-02T06:48:46.856Z,6.67
2023-03-02T06:51:15.283Z,6.90
2023-03-02T06:53:43.572Z,8.53
2023-03-02T06:56:11.862Z,7.30
2023-03-02T06:58:40.440Z,7.30
2023-03-02T07:01:09.008Z,6.50
2023-03-02T07:03:37.891Z,5.93
2023-03-02T07:06:08.468Z,5.37
2023-03-02T07:08:36.892Z,7.23
2023-03-02T07:11:09.295Z,5.33
2023-03-02T07:13:38.304Z,7.60
2023-03-02T07:16:08.889Z,5.63
2023-03-02T07:18:37.239Z,5.77
2023-03-02T07:21:08.298Z,6.17
2023-03-02T07:23:36.817Z,5.80
2023-03-02T07:26:08.469Z,6.00
2023-03-02T07:28:39.536Z,5.53
2023-03-02T07:31:10.627Z,5.73
2023-03-02T07:33:40.561Z,5.90
2023-03-02T07:36:10.449Z,6.63
2023-03-02T07:38:39.892Z,6.10
2023-03-02T07:41:09.048Z,4.97
2023-03-02T07:43:38.000Z,7.00
2023-03-02T07:46:06.759Z,6.90
2023-03-02T07:48:35.997Z,8.77
2023-03-02T07:51:05.789Z,8.67
2023-03-02T07:53:35.487Z,5.83
2023-03-02T07:56:08.924Z,7.87
2023-03-02T07:58:37.889Z,5.87
2023-03-02T08:01:06.629Z,5.57
2023-03-02T08:03:34.995Z,5.60
2023-03-02T08:06:06.957Z,8.07
2023-03-02T08:08:36.837Z,7.50
2023-03-02T08:11:06.695Z,6.03
2023-03-02T08:13:35.071Z,5.70
2023-03-02T08:16:04.520Z,10.67
2023-03-02T08:18:33.551Z,7.07
2023-03-02T08:21:01.854Z,6.23
2023-03-02T08:23:30.339Z,7.13
2023-03-02T08:25:59.995Z,7.53
2023-03-02T08:28:28.533Z,6.83
2023-03-02T08:30:57.785Z,6.87
2023-03-02T08:33:27.355Z,9.03
2023-03-02T08:35:57.159Z,8.10
2023-03-02T08:38:26.046Z,7.83
2023-03-02T08:40:54.809Z,7.50
2023-03-02T08:43:26.231Z,8.80
2023-03-02T08:45:56.737Z,6.37
2023-03-02T08:48:28.158Z,6.50
2023-03-02T08:50:58.178Z,8.00
2023-03-02T08:53:27.457Z,7.50
2023-03-02T08:55:56.128Z,7.40
2023-03-02T08:58:26.239Z,8.23
2023-03-02T09:00:54.743Z,7.33
2023-03-02T09:03:23.304Z,6.40
2023-03-02T09:05:51.766Z,5.93
2023-03-02T09:08:20.461Z,8.07
2023-03-02T09:10:48.881Z,7.33
2023-03-02T09:13:17.220Z,6.37
2023-03-02T09:15:46.969Z,6.07
2023-03-02T09:18:15.323Z,6.40
2023-03-02T09:20:43.788Z,10.40
2023-03-02T09:23:13.665Z,7.13
2023-03-02T09:25:42.171Z,6.80
2023-03-02T09:28:10.835Z,6.73
2023-03-02T09:30:39.259Z,5.60
2023-03-02T09:33:09.110Z,7.83
2023-03-02T09:35:40.160Z,6.40
2023-03-02T09:38:12.796Z,8.10
2023-03-02T09:40:50.254Z,6.60
2023-03-02T09:43:28.065Z,8.93
2023-03-02T09:46:05.045Z,10.50
2023-03-02T09:48:41.494Z,9.77
2023-03-02T09:51:25.197Z,7.17
2023-03-02T09:54:03.832Z,6.97
2023-03-02T09:56:33.101Z,6.00
2023-03-02T09:59:06.194Z,8.63
2023-03-02T10:01:40.217Z,19.57
2023-03-02T10:04:21.587Z,35.03
2023-03-02T10:06:55.613Z,13.87
2023-03-02T10:09:24.215Z,9.17
2023-03-02T10:12:08.119Z,7.87
2023-03-02T10:14:43.985Z,5.50
2023-03-02T10:17:35.220Z,6.90
2023-03-02T10:20:11.899Z,8.10
2023-03-02T10:22:45.342Z,7.67
2023-03-02T10:25:25.230Z,8.23
2023-03-02T10:28:01.544Z,8.83
2023-03-02T10:30:32.068Z,6.23
2023-03-02T10:33:04.489Z,8.20
2023-03-02T10:35:35.632Z,7.17
2023-03-02T10:38:13.710Z,5.90
2023-03-02T10:40:44.416Z,8.40
2023-03-02T10:43:18.831Z,9.47
2023-03-02T10:45:58.578Z,9.60
2023-03-02T10:48:27.025Z,10.30
2023-03-02T10:50:58.261Z,7.77
2023-03-02T10:53:26.656Z,6.73
2023-03-02T10:55:55.229Z,8.20
2023-03-02T10:58:27.080Z,6.70
2023-03-02T11:01:01.255Z,8.77
2023-03-02T11:03:30.481Z,7.97
2023-03-02T11:06:13.079Z,8.70
2023-03-02T11:08:41.497Z,7.77
2023-03-02T11:11:23.159Z,7.50
2023-03-02T11:13:51.718Z,7.93
2023-03-02T11:16:27.027Z,7.23
2023-03-02T11:19:00.002Z,8.63
2023-03-02T11:21:35.743Z,6.80
2023-03-02T11:24:11.636Z,10.60
2023-03-02T11:26:47.531Z,7.00
2023-03-02T11:29:25.090Z,8.03
2023-03-02T11:31:57.820Z,7.07
2023-03-02T11:34:31.982Z,16.07
2023-03-02T11:37:17.786Z,14.30
2023-03-02T11:40:06.391Z,9.67
2023-03-02T11:42:37.039Z,8.73
2023-03-02T11:45:17.533Z,7.87
2023-03-02T11:47:57.484Z,9.70
2023-03-02T11:50:29.869Z,8.80
2023-03-02T11:53:02.823Z,7.70
2023-03-02T11:55:35.742Z,11.20
2023-03-02T11:58:06.169Z,10.03
2023-03-02T12:00:38.113Z,8.83
2023-03-02T12:03:08.778Z,6.50
2023-03-02T12:05:40.054Z,7.83
2023-03-02T12:08:36.571Z,8.50
2023-03-02T12:11:07.376Z,6.10
2023-03-02T12:13:37.298Z,6.63
2023-03-02T12:16:06.769Z,8.97
2023-03-02T12:18:53.668Z,7.90
2023-03-02T12:21:24.846Z,6.70
2023-03-02T12:24:00.750Z,8.77
2023-03-02T12:26:34.445Z,8.23
2023-03-02T12:29:07.072Z,7.27
2023-03-02T12:31:43.888Z,6.20
2023-03-02T12:34:34.279Z,7.10
2023-03-02T12:37:08.593Z,11.90
2023-03-02T12:39:57.530Z,6.93
2023-03-02T12:42:50.977Z,16.50
2023-03-02T12:45:36.111Z,11.27
2023-03-02T12:48:15.572Z,9.40
2023-03-02T12:50:44.792Z,10.27
2023-03-02T12:53:19.401Z,9.80
2023-03-02T12:55:49.347Z,7.57
2023-03-02T12:58:20.535Z,7.53
2023-03-02T13:00:53.389Z,7.03
2023-03-02T13:03:22.445Z,6.30
2023-03-02T13:05:50.797Z,9.20
2023-03-02T13:08:24.176Z,7.20
2023-03-02T13:10:55.519Z,9.60
2023-03-02T13:13:27.319Z,7.17
2023-03-02T13:15:57.912Z,6.20
2023-03-02T13:18:31.862Z,11.47
2023-03-02T13:21:01.264Z,8.20
2023-03-02T13:23:32.153Z,7.50
2023-03-02T13:26:04.795Z,7.47
2023-03-02T13:28:34.978Z,9.57
2023-03-02T13:31:06.528Z,6.13
2023-03-02T13:33:36.574Z,7.47
2023-03-02T13:36:05.399Z,6.30
2023-03-02T13:38:37.100Z,8.97
2023-03-02T13:41:07.660Z,6.57
2023-03-02T13:43:40.909Z,7.63
2023-03-02T13:46:28.769Z,6.03
2023-03-02T13:49:11.873Z,6.40
2023-03-02T13:51:43.076Z,8.10
2023-03-02T13:54:22.086Z,12.20
2023-03-02T13:56:53.626Z,7.87
2023-03-02T13:59:23.106Z,10.00
2023-03-02T14:01:51.872Z,7.00
2023-03-02T14:04:23.315Z,18.87
2023-03-02T14:06:52.479Z,14.10
2023-03-02T14:09:21.407Z,11.63
2023-03-02T14:11:54.339Z,12.73
2023-03-02T14:14:25.175Z,7.80
2023-03-02T14:16:53.639Z,8.67
2023-03-02T14:19:22.023Z,7.23
2023-03-02T14:21:50.429Z,6.53
2023-03-02T14:24:18.792Z,6.50
2023-03-02T14:26:49.850Z,8.73
2023-03-02T14:29:23.914Z,8.53
2023-03-02T14:31:52.452Z,8.03
2023-03-02T14:34:21.185Z,7.80
2023-03-02T14:36:53.255Z,7.40
2023-03-02T14:39:24.193Z,7.83
2023-03-02T14:41:54.722Z,7.33
2023-03-02T14:44:24.910Z,5.83
2023-03-02T14:46:53.428Z,6.67
2023-03-02T14:49:22.070Z,6.80
2023-03-02T14:51:59.001Z,5.17
2023-03-02T14:54:28.559Z,7.00
2023-03-02T14:56:56.875Z,5.23
2023-03-02T14:59:26.630Z,5.20
2023-03-02T15:01:57.739Z,6.57
2023-03-02T15:04:26.785Z,7.43
2023-03-02T15:06:55.271Z,6.03
2023-03-02T15:09:23.546Z,9.87
2023-03-02T15:11:51.875Z,7.57
2023-03-02T15:14:20.257Z,6.33
2023-03-02T15:16:49.944Z,5.23
2023-03-02T15:19:19.327Z,10.33
2023-03-02T15:21:47.644Z,10.50
2023-03-02T15:24:17.484Z,9.87
2023-03-02T15:26:45.976Z,11.20
2023-03-02T15:29:14.292Z,6.77
2023-03-02T15:31:42.679Z,5.73
2023-03-02T15:34:13.201Z,6.60
2023-03-02T15:36:41.956Z,14.93
2023-03-02T15:39:14.205Z,13.03
2023-03-02T15:41:42.832Z,10.10
2023-03-02T15:44:21.719Z,8.10
2023-03-02T15:46:51.811Z,6.83
2023-03-02T15:49:24.503Z,6.60
2023-03-02T15:51:54.514Z,8.27
2023-03-02T15:54:23.164Z,9.00
2023-03-02T15:56:53.256Z,5.90
2023-03-02T15:59:21.891Z,6.77
2023-03-02T16:01:50.462Z,4.77
2023-03-02T16:04:18.974Z,6.53
2023-03-02T16:06:48.732Z,10.20
2023-03-02T16:09:17.105Z,6.77
2023-03-02T16:11:45.561Z,7.40
2023-03-02T16:14:15.693Z,5.90
2023-03-02T16:16:44.597Z,5.90
2023-03-02T16:19:15.039Z,6.67
2023-03-02T16:21:44.124Z,6.37
2023-03-02T16:24:16.153Z,8.17
2023-03-02T16:26:44.939Z,5.70
2023-03-02T16:29:14.877Z,6.20
2023-03-02T16:31:46.176Z,7.30
2023-03-02T16:34:14.810Z,6.63
2023-03-02T16:36:43.544Z,5.90
2023-03-02T16:39:14.534Z,5.97
2023-03-02T16:41:46.182Z,6.10
2023-03-02T16:44:16.170Z,9.23
2023-03-02T16:46:44.821Z,15.67
2023-03-02T16:49:14.517Z,13.73
2023-03-02T16:51:42.978Z,9.10
2023-03-02T16:54:12.115Z,9.63
2023-03-02T16:56:45.243Z,7.87
2023-03-02T16:59:13.754Z,8.67
2023-03-02T17:01:42.160Z,8.20
2023-03-02T17:04:10.713Z,6.00
2023-03-02T17:06:41.683Z,7.63
2023-03-02T17:09:12.481Z,8.50
2023-03-02T17:11:43.379Z,8.70
2023-03-02T17:14:12.116Z,7.70
2023-03-02T17:16:42.337Z,6.43
2023-03-02T17:19:10.641Z,6.50
2023-03-02T17:21:38.953Z,8.30
2023-03-02T17:24:07.797Z,8.03
2023-03-02T17:26:36.108Z,7.07
2023-03-02T17:29:05.982Z,11.33
2023-03-02T17:31:34.714Z,11.43
2023-03-02T17:34:03.063Z,8.50
2023-03-02T17:36:35.026Z,9.17
2023-03-02T17:39:05.353Z,9.17
2023-03-02T17:41:34.449Z,7.07
2023-03-02T17:44:03.885Z,8.37
2023-03-02T17:46:34.074Z,8.80
2023-03-02T17:49:02.845Z,9.00
2023-03-02T17:51:31.450Z,8.63
2023-03-02T17:53:59.814Z,8.93
2023-03-02T17:56:30.010Z,11.93
2023-03-02T17:59:00.005Z,9.50
2023-03-02T18:01:29.776Z,10.13
2023-03-02T18:03:59.991Z,7.43
2023-03-02T18:06:29.358Z,9.97
2023-03-02T18:08:57.713Z,8.77
2023-03-02T18:11:27.186Z,9.67
2023-03-02T18:13:56.155Z,9.23
2023-03-02T18:16:25.709Z,8.63
2023-03-02T18:18:54.213Z,7.77
2023-03-02T18:21:24.396Z,8.03
2023-03-02T18:23:52.842Z,8.17
2023-03-02T18:26:21.473Z,7.40
2023-03-02T18:28:49.814Z,8.10
2023-03-02T18:31:18.980Z,9.30
2023-03-02T18:33:47.638Z,17.33
2023-03-02T18:36:16.565Z,8.70
2023-03-02T18:38:46.233Z,10.23
2023-03-02T18:41:15.050Z,9.83
2023-03-02T18:43:43.973Z,11.40
2023-03-02T18:46:20.744Z,12.97
2023-03-02T18:48:50.233Z,11.50
2023-03-02T18:51:19.194Z,12.80
2023-03-02T18:53:51.063Z,10.63
2023-03-02T18:56:20.444Z,12.70
2023-03-02T18:58:49.784Z,14.30
2023-03-02T19:01:18.202Z,19.53
2023-03-02T19:03:46.808Z,16.53
2023-03-02T19:06:16.538Z,14.53
2023-03-02T19:08:45.159Z,15.40
2023-03-02T19:11:14.947Z,15.50
2023-03-02T19:13:43.317Z,14.00
2023-03-02T19:16:11.686Z,15.00
2023-03-02T19:18:40.361Z,12.60
2023-03-02T19:21:08.828Z,11.57
2023-03-02T19:23:37.102Z,12.30
2023-03-02T19:26:05.744Z,15.00
2023-03-02T19:28:36.231Z,14.57
2023-03-02T19:31:06.704Z,13.47
2023-03-02T19:33:35.877Z,12.17
2023-03-02T19:36:04.633Z,12.17
2023-03-02T19:38:33.251Z,16.97
2023-03-02T19:41:02.893Z,14.53
2023-03-02T19:43:31.393Z,16.17
2023-03-02T19:46:01.173Z,14.60
2023-03-02T19:48:30.392Z,14.40
2023-03-02T19:50:58.729Z,12.60
2023-03-02T19:53:27.012Z,12.07
2023-03-02T19:56:00.314Z,16.20
2023-03-02T19:58:28.667Z,14.70
2023-03-02T20:00:56.939Z,13.50
2023-03-02T20:03:26.694Z,15.17
2023-03-02T20:05:57.822Z,13.20
2023-03-02T20:08:26.597Z,16.03
2023-03-02T20:10:55.121Z,15.60
2023-03-02T20:13:25.496Z,12.47
2023-03-02T20:15:55.206Z,12.97
2023-03-02T20:18:23.597Z,14.30
2023-03-02T20:20:53.473Z,13.97
2023-03-02T20:23:21.720Z,12.93
2023-03-02T20:25:50.247Z,14.37
2023-03-02T20:28:22.616Z,16.70
2023-03-02T20:30:53.642Z,16.00
2023-03-02T20:33:24.652Z,15.87
2023-03-02T20:35:54.816Z,18.57
2023-03-02T20:38:29.227Z,16.30
2023-03-02T20:40:58.135Z,13.63
2023-03-02T20:43:29.039Z,17.47
2023-03-02T20:45:57.859Z,16.20
2023-03-02T20:48:26.851Z,16.00
2023-03-02T20:50:56.937Z,19.57
2023-03-02T20:53:25.301Z,16.83
2023-03-02T20:55:53.964Z,16.57
2023-03-02T20:58:22.305Z,23.30
2023-03-02T21:00:50.703Z,16.40
2023-03-02T21:03:18.978Z,19.83
2023-03-02T21:05:47.360Z,18.23
2023-03-02T21:08:17.094Z,18.60
2023-03-02T21:10:45.526Z,17.07
2023-03-02T21:13:13.939Z,20.90
2023-03-02T21:15:43.077Z,16.73
2023-03-02T21:18:11.406Z,18.30
2023-03-02T21:20:40.386Z,17.23
2023-03-02T21:23:10.319Z,18.30
2023-03-02T21:25:42.306Z,16.83
2023-03-02T21:28:10.937Z,18.13
2023-03-02T21:30:39.243Z,18.30
2023-03-02T21:33:07.839Z,16.90
2023-03-02T21:35:37.266Z,18.30
2023-03-02T21:38:06.114Z,18.03
2023-03-02T21:40:37.674Z,21.00
2023-03-02T21:43:07.685Z,18.87
2023-03-02T21:45:36.997Z,18.40
2023-03-02T21:48:07.048Z,21.33
2023-03-02T21:50:38.609Z,19.33
2023-03-02T21:53:07.323Z,18.50
2023-03-02T21:55:36.070Z,17.67
2023-03-02T21:58:04.466Z,22.97
2023-03-02T22:00:35.852Z,22.90
2023-03-02T22:03:05.305Z,20.30
2023-03-02T22:05:34.198Z,23.97
2023-03-02T22:08:02.485Z,21.47
2023-03-02T22:10:34.431Z,23.50
2023-03-02T22:13:17.441Z,24.13
2023-03-02T22:15:48.072Z,24.37
2023-03-02T22:18:18.594Z,29.37
2023-03-02T22:20:52.015Z,22.80
2023-03-02T22:23:22.223Z,23.70
2023-03-02T22:25:53.880Z,24.87
2023-03-02T22:28:24.959Z,26.03
2023-03-02T22:30:59.473Z,22.80
2023-03-02T22:33:29.719Z,24.63
2023-03-02T22:36:03.630Z,24.03
2023-03-02T22:38:32.548Z,24.40
2023-03-02T22:41:00.858Z,25.90
2023-03-02T22:43:31.182Z,29.17
2023-03-02T22:46:15.342Z,24.30
2023-03-02T22:48:45.199Z,26.00
2023-03-02T22:51:17.102Z,28.07
2023-03-02T22:53:49.826Z,27.27
2023-03-02T22:56:29.447Z,25.30
2023-03-02T22:58:59.396Z,24.50
2023-03-02T23:01:38.234Z,29.27
2023-03-02T23:04:16.291Z,25.30
2023-03-02T23:06:46.498Z,28.37
2023-03-02T23:09:17.434Z,28.90
2023-03-02T23:11:46.119Z,31.50
2023-03-02T23:14:24.291Z,32.03
2023-03-02T23:17:00.247Z,33.07
2023-03-02T23:19:29.709Z,36.77
2023-03-02T23:21:58.031Z,34.53
2023-03-02T23:24:26.530Z,38.97
2023-03-02T23:26:54.860Z,45.20
2023-03-02T23:29:23.464Z,48.70
2023-03-02T23:31:52.099Z,46.30
2023-03-02T23:34:21.978Z,44.00
2023-03-02T23:36:50.371Z,47.87
2023-03-02T23:39:18.695Z,48.47
2023-03-02T23:41:47.128Z,57.77
2023-03-02T23:44:15.426Z,52.37
2023-03-02T23:46:43.883Z,49.23
2023-03-02T23:49:12.230Z,49.97
2023-03-02T23:51:42.013Z,50.20
2023-03-02T23:54:10.476Z,55.03
2023-03-02T23:56:38.755Z,52.17
2023-03-02T23:59:07.167Z,59.20
